createdAt,value
2022-11-15T00:02:21.074Z,100292.88
2022-11-15T00:07:53.386Z,100294.84
2022-11-15T00:12:47.594Z,100299.22
2022-11-15T00:17:50.652Z,100298.56
2022-11-15T00:22:55.564Z,100295.06
2022-11-15T00:27:58.934Z,100297.44
2022-11-15T00:33:03.879Z,100289.59
2022-11-15T00:38:07.764Z,100300.25
2022-11-15T00:43:10.582Z,100304.09
2022-11-15T00:48:13.101Z,100298.19
2022-11-15T00:53:17.860Z,100298.69
2022-11-15T00:58:20.768Z,100306.59
2022-11-15T01:03:23.446Z,100306.22
2022-11-15T01:08:27.407Z,100296.94
2022-11-15T01:13:33.074Z,100290.56
2022-11-15T01:18:35.881Z,100288.31
2022-11-15T01:23:40.261Z,100294.63
2022-11-15T01:28:43.969Z,100286.47
2022-11-15T01:33:47.419Z,100281.91
2022-11-15T01:38:56.176Z,100276.47
2022-11-15T01:44:19.939Z,100262.75
2022-11-15T01:49:25.642Z,100252.63
2022-11-15T01:54:29.948Z,100262.94
2022-11-15T01:59:33.034Z,100255.97
2022-11-15T02:04:40.025Z,100258.94
2022-11-15T02:09:45.279Z,100243.31
2022-11-15T02:14:52.120Z,100244.34
2022-11-15T02:20:38.438Z,100234.66
2022-11-15T02:25:55.929Z,100210.59
2022-11-15T02:31:06.924Z,100213.59
2022-11-15T02:36:16.897Z,100210.78
2022-11-15T02:41:26.188Z,100201.16
2022-11-15T02:46:53.958Z,100195.81
2022-11-15T02:51:57.816Z,100204.84
2022-11-15T02:57:03.427Z,100194.00
2022-11-15T03:02:20.192Z,100188.75
2022-11-15T03:07:31.501Z,100195.00
2022-11-15T03:12:42.827Z,100182.72
2022-11-15T03:17:52.863Z,100182.09
2022-11-15T03:22:57.986Z,100168.53
2022-11-15T03:28:05.911Z,100161.50
2022-11-15T03:33:11.754Z,100156.13
2022-11-15T03:38:21.713Z,100167.97
2022-11-15T03:43:32.851Z,100176.69
2022-11-15T03:48:42.531Z,100167.06
2022-11-15T03:53:45.125Z,100165.78
2022-11-15T03:58:47.664Z,100178.00
2022-11-15T04:03:51.658Z,100171.47
2022-11-15T04:08:54.173Z,100176.16
2022-11-15T04:13:56.693Z,100174.16
2022-11-15T04:19:18.341Z,100184.53
2022-11-15T04:24:20.959Z,100176.06
2022-11-15T04:29:38.528Z,100175.16
2022-11-15T04:34:42.408Z,100175.53
2022-11-15T04:39:45.436Z,100176.50
2022-11-15T04:44:48.109Z,100164.50
2022-11-15T04:49:52.000Z,100161.97
2022-11-15T04:54:54.676Z,100163.44
2022-11-15T04:59:57.245Z,100153.78
2022-11-15T05:05:01.132Z,100161.53
2022-11-15T05:10:03.761Z,100160.22
2022-11-15T05:15:07.331Z,100152.28
2022-11-15T05:20:12.418Z,100153.22
2022-11-15T05:25:14.959Z,100154.38
2022-11-15T05:30:18.276Z,100151.22
2022-11-15T05:35:31.871Z,100154.28
2022-11-15T05:40:36.433Z,100154.28
2022-11-15T05:45:38.956Z,100147.16
2022-11-15T05:50:46.271Z,100141.44
2022-11-15T05:55:49.569Z,100142.38
2022-11-15T06:00:52.209Z,100142.66
2022-11-15T06:05:56.296Z,100156.72
2022-11-15T06:10:58.824Z,100156.56
2022-11-15T06:16:01.890Z,100163.97
2022-11-15T06:21:06.917Z,100162.16
2022-11-15T06:26:09.456Z,100140.22
2022-11-15T06:31:13.259Z,100137.75
2022-11-15T06:36:18.262Z,100155.16
2022-11-15T06:41:21.978Z,100159.59
2022-11-15T06:46:24.721Z,100165.22
2022-11-15T06:51:28.727Z,100185.13
2022-11-15T06:56:31.373Z,100179.63
2022-11-15T07:01:33.942Z,100177.38
2022-11-15T07:06:37.901Z,100177.78
2022-11-15T07:11:40.790Z,100174.19
2022-11-15T07:16:43.360Z,100165.47
2022-11-15T07:21:47.622Z,100172.47
2022-11-15T07:26:50.283Z,100165.47
2022-11-15T07:31:53.052Z,100181.69
2022-11-15T07:37:06.070Z,100173.38
2022-11-15T07:42:26.361Z,100176.09
2022-11-15T07:47:30.437Z,100176.75
2022-11-15T07:52:34.433Z,100176.09
2022-11-15T07:57:37.359Z,100180.44
2022-11-15T08:02:40.222Z,100174.06
2022-11-15T08:07:44.310Z,100154.19
2022-11-15T08:12:46.873Z,100154.72
2022-11-15T08:17:51.048Z,100158.19
2022-11-15T08:22:57.650Z,100157.44
2022-11-15T08:28:01.886Z,100149.56
2022-11-15T08:33:05.068Z,100142.03
2022-11-15T08:38:09.030Z,100130.38
2022-11-15T08:43:11.584Z,100126.88
2022-11-15T08:48:14.138Z,100121.50
2022-11-15T08:53:18.076Z,100131.50
2022-11-15T08:58:20.694Z,100132.72
2022-11-15T09:03:23.301Z,100128.31
2022-11-15T09:08:48.192Z,100123.56
2022-11-15T09:13:52.615Z,100126.66
2022-11-15T09:18:55.697Z,100111.63
2022-11-15T09:23:59.928Z,100125.50
2022-11-15T09:29:03.219Z,100113.47
2022-11-15T09:34:05.778Z,100112.06
2022-11-15T09:39:10.375Z,100109.81
2022-11-15T09:44:30.854Z,100109.00
2022-11-15T09:49:34.661Z,100107.81
2022-11-15T09:54:56.431Z,100100.72
2022-11-15T10:05:43.263Z,100085.28
2022-11-15T10:11:00.600Z,100092.25
2022-11-15T10:16:24.934Z,100085.16
2022-11-15T10:21:39.840Z,100082.88
2022-11-15T10:26:49.690Z,100086.06
2022-11-15T10:31:52.395Z,100084.59
2022-11-15T10:36:59.021Z,100075.63
2022-11-15T10:42:18.382Z,100074.41
2022-11-15T10:47:32.422Z,100059.59
2022-11-15T10:52:38.688Z,100052.47
2022-11-15T10:57:52.247Z,100045.56
2022-11-15T11:03:00.588Z,100039.38
2022-11-15T11:08:05.995Z,100030.56
2022-11-15T11:13:17.259Z,100016.38
2022-11-15T11:18:25.889Z,100010.22
2022-11-15T11:23:44.109Z,100015.84
2022-11-15T11:28:53.845Z,100005.44
2022-11-15T11:34:06.369Z,100012.66
2022-11-15T11:39:21.143Z,99996.28
2022-11-15T11:44:34.666Z,99983.59
2022-11-15T11:49:44.227Z,99996.38
2022-11-15T11:54:57.055Z,99977.88
2022-11-15T12:00:06.197Z,99978.09
2022-11-15T12:05:15.506Z,99981.63
2022-11-15T12:10:24.260Z,99969.47
2022-11-15T12:15:32.262Z,99951.69
2022-11-15T12:20:38.598Z,99942.84
2022-11-15T12:25:47.753Z,99937.13
2022-11-15T12:30:56.761Z,99919.16
2022-11-15T12:36:01.337Z,99920.19
2022-11-15T12:41:20.031Z,99906.53
2022-11-15T12:46:46.734Z,99899.72
2022-11-15T12:52:08.648Z,99903.78
2022-11-15T12:57:41.471Z,99899.81
2022-11-15T13:02:46.251Z,99891.84
2022-11-15T13:08:00.220Z,99883.59
2022-11-15T13:13:04.459Z,99885.34
2022-11-15T13:18:35.888Z,99884.94
2022-11-15T13:23:38.727Z,99880.19
2022-11-15T13:28:46.643Z,99880.81
2022-11-15T13:33:50.885Z,99874.94
2022-11-15T13:38:59.709Z,99874.91
2022-11-15T13:44:03.998Z,99871.69
2022-11-15T13:49:12.878Z,99866.66
2022-11-15T13:54:29.510Z,99858.03
2022-11-15T13:59:35.350Z,99854.47
2022-11-15T14:04:41.474Z,99847.22
2022-11-15T14:09:46.220Z,99852.59
2022-11-15T14:14:49.276Z,99834.66
2022-11-15T14:19:53.465Z,99831.00
2022-11-15T14:25:19.801Z,99824.19
2022-11-15T14:30:23.667Z,99822.88
2022-11-15T14:35:27.614Z,99818.78
2022-11-15T14:40:30.576Z,99815.91
2022-11-15T14:45:33.491Z,99813.16
2022-11-15T14:50:38.192Z,99808.34
2022-11-15T14:55:40.914Z,99808.03
2022-11-15T15:00:43.949Z,99794.88
2022-11-15T15:05:48.955Z,99791.34
2022-11-15T15:10:51.482Z,99784.38
2022-11-15T15:15:54.656Z,99789.97
2022-11-15T15:21:04.009Z,99783.06
2022-11-15T15:26:06.583Z,99788.25
2022-11-15T15:31:10.434Z,99782.13
2022-11-15T15:36:15.764Z,99779.31
2022-11-15T15:41:19.066Z,99775.47
2022-11-15T15:46:22.246Z,99774.13
2022-11-15T15:51:26.322Z,99765.16
2022-11-15T15:56:29.153Z,99769.31
2022-11-15T16:01:31.887Z,99773.00
2022-11-15T16:06:43.230Z,99767.19
2022-11-15T16:11:48.030Z,99770.84
2022-11-15T16:16:50.663Z,99774.56
2022-11-15T16:21:54.585Z,99766.03
2022-11-15T16:26:57.185Z,99768.47
2022-11-15T16:31:59.800Z,99758.31
2022-11-15T16:37:04.037Z,99756.06
2022-11-15T16:42:06.758Z,99757.88
2022-11-15T16:47:18.513Z,99757.31
2022-11-15T16:52:22.421Z,99748.34
2022-11-15T16:57:26.113Z,99758.53
2022-11-15T17:02:28.813Z,99749.31
2022-11-15T17:07:32.793Z,99746.72
2022-11-15T17:12:36.481Z,99747.50
2022-11-15T17:17:39.035Z,99753.47
2022-11-15T17:22:43.042Z,99747.53
2022-11-15T17:27:45.672Z,99746.56
2022-11-15T17:32:49.725Z,99749.84
2022-11-15T17:37:53.645Z,99741.38
2022-11-15T17:42:57.395Z,99737.75
2022-11-15T17:48:00.321Z,99746.38
2022-11-15T17:53:04.250Z,99740.34
2022-11-15T17:58:06.840Z,99729.94
2022-11-15T18:03:09.463Z,99722.28
2022-11-15T18:08:17.615Z,99718.78
2022-11-15T18:13:21.271Z,99719.31
2022-11-15T18:18:23.825Z,99712.81
2022-11-15T18:23:27.839Z,99709.66
2022-11-15T18:28:33.129Z,99708.13
2022-11-15T18:33:36.192Z,99704.47
2022-11-15T18:38:41.326Z,99707.97
2022-11-15T18:43:45.381Z,99699.13
2022-11-15T18:48:50.438Z,99687.97
2022-11-15T18:53:55.598Z,99701.84
2022-11-15T18:59:00.038Z,99691.59
2022-11-15T19:04:06.573Z,99683.19
2022-11-15T19:09:11.829Z,99678.44
2022-11-15T19:14:16.233Z,99665.59
2022-11-15T19:19:20.922Z,99664.31
2022-11-15T19:24:25.029Z,99649.94
2022-11-15T19:29:28.948Z,99638.41
2022-11-15T19:34:31.690Z,99643.63
2022-11-15T19:39:40.939Z,99655.88
2022-11-15T19:44:43.877Z,99670.00
2022-11-15T19:49:47.516Z,99662.78
2022-11-15T19:54:51.482Z,99660.84
2022-11-15T19:59:54.055Z,99655.69
2022-11-15T20:04:56.641Z,99650.13
2022-11-15T20:10:01.219Z,99647.00
2022-11-15T20:15:03.652Z,99643.47
2022-11-15T20:20:07.431Z,99627.81
2022-11-15T20:25:12.615Z,99624.31
2022-11-15T20:30:15.511Z,99622.25
2022-11-15T20:35:18.191Z,99628.22
2022-11-15T20:40:22.251Z,99622.44
2022-11-15T20:45:25.058Z,99615.28
2022-11-15T20:50:42.211Z,99625.00
2022-11-15T20:55:48.921Z,99617.00
2022-11-15T21:00:51.662Z,99603.25
2022-11-15T21:05:55.269Z,99584.38
2022-11-15T21:11:16.992Z,99594.09
2022-11-15T21:16:19.610Z,99597.56
2022-11-15T21:21:22.434Z,99596.56
2022-11-15T21:26:26.422Z,99591.28
2022-11-15T21:31:29.225Z,99585.50
2022-11-15T21:36:32.016Z,99574.34
2022-11-15T21:41:36.384Z,99566.38
2022-11-15T21:46:39.154Z,99558.09
2022-11-15T21:51:42.224Z,99554.44
2022-11-15T21:56:46.347Z,99557.41
2022-11-15T22:02:06.767Z,99555.69
2022-11-15T22:07:09.391Z,99545.28
2022-11-15T22:12:13.831Z,99529.41
2022-11-15T22:17:16.689Z,99535.19
2022-11-15T22:22:19.362Z,99545.53
2022-11-15T22:27:23.325Z,99529.53
2022-11-15T22:32:25.963Z,99534.09
2022-11-15T22:37:28.605Z,99526.00
2022-11-15T22:42:34.473Z,99522.59
2022-11-15T22:47:37.243Z,99523.41
2022-11-15T22:52:39.972Z,99506.28
2022-11-15T22:57:44.223Z,99512.19
2022-11-15T23:02:49.581Z,99509.25
2022-11-15T23:07:55.841Z,99493.19
2022-11-15T23:13:17.509Z,99477.53
2022-11-15T23:18:20.683Z,99470.50
2022-11-15T23:23:23.422Z,99455.56
2022-11-15T23:28:27.368Z,99461.91
2022-11-15T23:33:47.457Z,99468.34
2022-11-15T23:38:50.105Z,99453.13
2022-11-15T23:43:54.300Z,99441.59
2022-11-15T23:48:57.177Z,99434.66
2022-11-15T23:53:59.998Z,99424.16
2022-11-15T23:59:04.445Z,99421.78
